createdAt,value
2022-11-02T00:00:14.989Z,19.52
2022-11-02T00:03:00.855Z,19.13
2022-11-02T00:05:46.701Z,19.50
2022-11-02T00:08:32.515Z,18.92
2022-11-02T00:11:18.025Z,18.98
2022-11-02T00:14:04.471Z,17.65
2022-11-02T00:16:50.236Z,17.75
2022-11-02T00:19:36.016Z,17.33
2022-11-02T00:22:22.586Z,17.48
2022-11-02T00:25:09.280Z,17.27
2022-11-02T00:27:55.224Z,15.38
2022-11-02T00:30:41.516Z,15.25
2022-11-02T00:33:27.635Z,15.30
2022-11-02T00:36:13.422Z,15.05
2022-11-02T00:38:59.012Z,14.43
2022-11-02T00:41:45.244Z,14.45
2022-11-02T00:44:31.171Z,15.50
2022-11-02T00:47:17.030Z,14.40
2022-11-02T00:50:03.082Z,15.10
2022-11-02T00:52:50.374Z,14.60
2022-11-02T00:55:37.672Z,14.07
2022-11-02T00:58:23.678Z,14.15
2022-11-02T01:01:10.060Z,14.77
2022-11-02T01:03:59.088Z,13.85
2022-11-02T01:06:45.942Z,14.20
2022-11-02T01:09:31.642Z,14.10
2022-11-02T01:12:17.267Z,14.30
2022-11-02T01:15:03.468Z,13.90
2022-11-02T01:17:49.343Z,14.27
2022-11-02T01:20:35.271Z,13.75
2022-11-02T01:23:21.095Z,13.82
2022-11-02T01:26:08.684Z,13.88
2022-11-02T01:28:55.019Z,12.65
2022-11-02T01:31:40.760Z,12.88
2022-11-02T01:34:26.367Z,12.65
2022-11-02T01:37:12.097Z,13.95
2022-11-02T01:39:57.831Z,12.90
2022-11-02T01:42:43.462Z,13.05
2022-11-02T01:45:29.208Z,13.93
2022-11-02T01:48:15.044Z,14.13
2022-11-02T01:51:03.784Z,13.25
2022-11-02T01:53:52.304Z,13.43
2022-11-02T01:56:40.156Z,12.88
2022-11-02T01:59:37.116Z,12.95
2022-11-02T02:02:24.846Z,13.52
2022-11-02T02:05:13.752Z,13.30
2022-11-02T02:08:03.138Z,12.82
2022-11-02T02:10:51.389Z,12.68
2022-11-02T02:13:36.745Z,12.68
2022-11-02T02:17:05.291Z,13.30
2022-11-02T02:20:18.456Z,12.73
2022-11-02T02:23:32.113Z,12.02
2022-11-02T02:26:55.236Z,12.35
2022-11-02T02:30:02.542Z,11.88
2022-11-02T02:32:57.722Z,13.07
2022-11-02T02:35:54.213Z,12.30
2022-11-02T02:38:45.600Z,12.55
2022-11-02T02:41:41.142Z,12.30
2022-11-02T02:44:33.099Z,12.35
2022-11-02T02:47:23.695Z,11.93
2022-11-02T02:50:19.816Z,13.15
2022-11-02T02:53:08.086Z,12.80
2022-11-02T02:55:57.819Z,12.55
2022-11-02T02:59:02.741Z,12.02
2022-11-02T03:01:49.205Z,11.40
2022-11-02T03:04:35.020Z,13.35
2022-11-02T03:07:29.653Z,12.35
2022-11-02T03:10:47.500Z,11.82
2022-11-02T03:13:48.837Z,12.23
2022-11-02T03:16:44.648Z,12.40
2022-11-02T03:20:04.710Z,11.80
2022-11-02T03:23:02.576Z,11.55
2022-11-02T03:25:59.777Z,11.55
2022-11-02T03:29:00.516Z,12.18
2022-11-02T03:31:56.709Z,11.40
2022-11-02T03:34:48.997Z,11.25
2022-11-02T03:38:03.713Z,11.93
2022-11-02T03:40:52.195Z,11.27
2022-11-02T03:43:40.968Z,11.65
2022-11-02T03:46:29.955Z,12.35
2022-11-02T03:49:19.819Z,15.05
2022-11-02T03:52:11.411Z,18.98
2022-11-02T03:55:09.331Z,20.60
2022-11-02T03:57:56.321Z,22.33
2022-11-02T04:00:51.575Z,22.73
2022-11-02T04:03:41.931Z,23.75
2022-11-02T04:06:27.935Z,23.77
2022-11-02T04:09:13.716Z,23.65
2022-11-02T04:12:18.706Z,22.63
2022-11-02T04:15:04.761Z,22.45
2022-11-02T04:18:09.089Z,23.27
2022-11-02T04:20:54.656Z,24.55
2022-11-02T04:23:59.024Z,24.38
2022-11-02T04:26:45.706Z,25.33
2022-11-02T04:29:31.410Z,23.38
2022-11-02T04:32:37.896Z,24.83
2022-11-02T04:35:26.748Z,18.65
2022-11-02T04:38:31.716Z,16.00
2022-11-02T04:41:49.160Z,14.00
2022-11-02T04:44:40.439Z,14.10
2022-11-02T04:47:36.161Z,14.13
2022-11-02T04:50:21.783Z,14.15
2022-11-02T04:53:08.148Z,14.55
2022-11-02T04:55:54.511Z,14.43
2022-11-02T04:58:40.290Z,13.95
2022-11-02T05:01:28.550Z,13.50
2022-11-02T05:04:14.647Z,12.70
2022-11-02T05:07:01.857Z,12.60
2022-11-02T05:09:52.440Z,13.25
2022-11-02T05:12:38.331Z,12.90
2022-11-02T05:15:23.813Z,13.38
2022-11-02T05:18:11.710Z,13.25
2022-11-02T05:21:02.334Z,13.40
2022-11-02T05:23:49.779Z,14.50
2022-11-02T05:26:36.406Z,13.50
2022-11-02T05:29:23.032Z,13.13
2022-11-02T05:32:09.920Z,13.23
2022-11-02T05:34:57.076Z,12.52
2022-11-02T05:37:43.137Z,11.93
2022-11-02T05:40:28.823Z,11.80
2022-11-02T05:43:16.611Z,10.93
2022-11-02T05:46:03.866Z,10.57
2022-11-02T05:48:49.485Z,11.50
2022-11-02T05:51:34.973Z,11.15
2022-11-02T05:54:21.243Z,11.25
2022-11-02T05:57:07.105Z,11.20
2022-11-02T05:59:52.870Z,10.85
2022-11-02T06:02:38.209Z,11.40
2022-11-02T06:05:25.669Z,11.65
2022-11-02T06:08:12.763Z,10.77
2022-11-02T06:10:58.790Z,11.23
2022-11-02T06:13:44.378Z,10.50
2022-11-02T06:16:31.042Z,10.70
2022-11-02T06:19:16.652Z,10.10
2022-11-02T06:22:03.582Z,9.45
2022-11-02T06:24:49.153Z,10.20
2022-11-02T06:27:35.112Z,10.38
2022-11-02T06:30:22.190Z,10.88
2022-11-02T06:33:07.757Z,11.55
2022-11-02T06:35:54.615Z,11.52
2022-11-02T06:38:42.230Z,11.10
2022-11-02T06:41:28.004Z,12.07
2022-11-02T06:44:13.679Z,12.13
2022-11-02T06:46:59.372Z,12.35
2022-11-02T06:49:44.988Z,12.52
2022-11-02T06:52:31.594Z,13.30
2022-11-02T06:55:18.888Z,14.32
2022-11-02T06:58:05.087Z,14.07
2022-11-02T07:00:56.538Z,15.85
2022-11-02T07:03:42.377Z,16.80
2022-11-02T07:06:28.356Z,16.50
2022-11-02T07:09:14.012Z,17.75
2022-11-02T07:11:59.868Z,18.17
2022-11-02T07:14:45.625Z,19.90
2022-11-02T07:17:32.422Z,19.85
2022-11-02T07:20:18.432Z,20.55
2022-11-02T07:23:05.593Z,17.20
2022-11-02T07:25:51.900Z,20.50
2022-11-02T07:28:38.504Z,24.60
2022-11-02T07:31:24.860Z,26.90
2022-11-02T07:34:16.549Z,28.55
2022-11-02T07:37:02.784Z,30.73
2022-11-02T07:39:49.479Z,37.45
2022-11-02T07:42:36.575Z,36.17
2022-11-02T07:45:25.384Z,35.30
2022-11-02T07:48:11.078Z,36.08
2022-11-02T07:51:00.168Z,38.08
2022-11-02T07:53:45.544Z,40.15
2022-11-02T07:56:31.030Z,39.50
2022-11-02T07:59:16.721Z,39.78
2022-11-02T08:02:03.023Z,40.70
2022-11-02T08:04:48.799Z,42.05
2022-11-02T08:07:34.534Z,41.35
2022-11-02T08:10:20.068Z,41.08
2022-11-02T08:13:06.038Z,43.60
2022-11-02T08:15:52.894Z,45.50
2022-11-02T08:18:38.713Z,45.58
2022-11-02T08:21:27.516Z,46.15
2022-11-02T08:24:13.740Z,44.60
2022-11-02T08:26:59.151Z,43.45
2022-11-02T08:29:45.545Z,45.95
2022-11-02T08:32:31.170Z,45.13
2022-11-02T08:35:17.340Z,44.83
2022-11-02T08:38:03.404Z,41.80
2022-11-02T08:40:49.737Z,44.08
2022-11-02T08:43:35.649Z,42.75
2022-11-02T08:46:21.480Z,43.13
2022-11-02T08:49:07.093Z,42.90
2022-11-02T08:51:52.668Z,43.17
2022-11-02T08:54:38.536Z,43.33
2022-11-02T08:57:24.318Z,43.55
2022-11-02T09:00:10.856Z,42.47
2022-11-02T09:03:04.966Z,43.47
2022-11-02T09:05:51.026Z,40.40
2022-11-02T09:08:36.596Z,41.13
2022-11-02T09:11:26.927Z,40.50
2022-11-02T09:14:12.337Z,41.38
2022-11-02T09:16:58.069Z,41.78
2022-11-02T09:19:43.780Z,38.20
2022-11-02T09:22:30.312Z,37.80
2022-11-02T09:25:17.285Z,36.60
2022-11-02T09:28:03.320Z,38.78
2022-11-02T09:30:49.283Z,38.65
2022-11-02T09:33:36.180Z,37.10
2022-11-02T09:36:21.724Z,36.03
2022-11-02T09:39:08.207Z,33.20
2022-11-02T09:42:20.151Z,32.70
2022-11-02T09:45:14.816Z,31.05
2022-11-02T09:48:17.069Z,31.90
2022-11-02T09:51:16.301Z,31.05
2022-11-02T09:54:23.828Z,29.90
2022-11-02T09:57:16.721Z,29.77
2022-11-02T10:00:02.656Z,28.83
2022-11-02T10:03:04.346Z,28.63
2022-11-02T10:06:11.716Z,29.83
2022-11-02T10:09:06.937Z,28.42
2022-11-02T10:12:10.041Z,27.90
2022-11-02T10:15:07.840Z,26.95
2022-11-02T10:17:58.425Z,27.45
2022-11-02T10:20:50.905Z,26.45
2022-11-02T10:23:47.571Z,27.00
2022-11-02T10:26:37.652Z,27.27
2022-11-02T10:29:45.425Z,27.00
2022-11-02T10:32:32.786Z,26.42
2022-11-02T10:35:33.990Z,25.70
2022-11-02T10:38:42.396Z,25.95
2022-11-02T10:41:30.999Z,26.42
2022-11-02T10:44:25.225Z,26.35
2022-11-02T10:47:27.545Z,25.55
2022-11-02T10:50:41.425Z,24.08
2022-11-02T10:53:40.558Z,22.83
2022-11-02T10:56:32.495Z,24.13
2022-11-02T10:59:20.425Z,22.48
2022-11-02T11:02:14.419Z,22.88
2022-11-02T11:05:14.257Z,21.65
2022-11-02T11:08:01.006Z,21.80
2022-11-02T11:10:47.014Z,22.23
2022-11-02T11:16:40.139Z,22.75
2022-11-02T11:19:39.343Z,23.73
2022-11-02T11:22:33.826Z,24.38
2022-11-02T11:25:28.173Z,25.77
2022-11-02T11:28:22.950Z,25.58
2022-11-02T11:31:18.875Z,26.55
2022-11-02T11:34:06.741Z,28.25
2022-11-02T11:36:52.847Z,29.63
2022-11-02T11:39:42.480Z,28.25
2022-11-02T11:42:32.341Z,28.70
2022-11-02T11:45:25.240Z,29.35
2022-11-02T11:48:29.167Z,31.90
2022-11-02T11:51:42.431Z,30.65
2022-11-02T11:54:33.005Z,34.22
2022-11-02T11:57:34.348Z,32.30
2022-11-02T12:00:28.901Z,32.65
2022-11-02T12:03:16.445Z,30.88
2022-11-02T12:06:15.763Z,31.45
2022-11-02T12:09:38.559Z,31.35
2022-11-02T12:12:42.743Z,30.35
2022-11-02T12:15:55.349Z,30.88
2022-11-02T12:22:02.452Z,27.85
2022-11-02T12:25:03.290Z,30.65
2022-11-02T12:28:13.394Z,28.95
2022-11-02T12:31:11.090Z,32.30
2022-11-02T12:34:05.700Z,33.15
2022-11-02T12:40:11.081Z,34.33
2022-11-02T12:43:38.347Z,32.47
2022-11-02T12:46:57.238Z,35.28
2022-11-02T12:49:54.482Z,35.13
2022-11-02T12:52:57.112Z,33.55
2022-11-02T12:55:47.030Z,33.90
2022-11-02T12:58:39.055Z,32.75
2022-11-02T13:01:28.043Z,30.98
2022-11-02T13:04:23.273Z,29.42
2022-11-02T13:07:15.256Z,32.85
2022-11-02T13:10:25.613Z,31.75
2022-11-02T13:13:27.115Z,31.33
2022-11-02T13:16:16.271Z,29.92
2022-11-02T13:19:03.996Z,32.13
2022-11-02T13:21:55.061Z,30.02
2022-11-02T13:24:47.821Z,32.47
2022-11-02T13:27:39.257Z,31.40
2022-11-02T13:30:25.711Z,28.58
2022-11-02T13:33:26.397Z,28.85
2022-11-02T13:36:13.283Z,28.95
2022-11-02T13:39:10.714Z,27.20
2022-11-02T13:42:17.498Z,28.80
2022-11-02T13:45:25.716Z,30.65
2022-11-02T13:48:36.331Z,27.48
2022-11-02T13:51:40.470Z,31.60
2022-11-02T13:54:31.209Z,29.75
2022-11-02T13:57:38.762Z,29.85
2022-11-02T14:00:30.785Z,27.55
2022-11-02T14:03:25.340Z,29.42
2022-11-02T14:06:14.017Z,27.98
2022-11-02T14:09:05.207Z,29.05
2022-11-02T14:11:51.866Z,28.05
2022-11-02T14:14:37.457Z,27.30
2022-11-02T14:17:23.150Z,29.95
2022-11-02T14:20:33.408Z,28.05
2022-11-02T14:23:25.450Z,29.58
2022-11-02T14:26:31.546Z,28.15
2022-11-02T14:29:41.929Z,31.05
2022-11-02T14:32:52.796Z,29.85
2022-11-02T14:35:49.648Z,31.73
2022-11-02T14:38:38.143Z,31.52
2022-11-02T14:41:42.015Z,32.08
2022-11-02T14:44:45.322Z,30.10
2022-11-02T14:47:34.567Z,29.63
2022-11-02T14:50:21.483Z,31.48
2022-11-02T14:53:18.007Z,30.75
2022-11-02T14:56:04.212Z,33.22
2022-11-02T14:58:56.674Z,32.03
2022-11-02T15:01:59.153Z,30.55
2022-11-02T15:04:55.588Z,30.92
2022-11-02T15:08:03.463Z,31.45
2022-11-02T15:10:49.212Z,29.38
2022-11-02T15:13:46.775Z,30.67
2022-11-02T15:16:41.209Z,27.20
2022-11-02T15:19:46.978Z,27.88
2022-11-02T15:22:32.823Z,27.48
2022-11-02T15:25:26.749Z,28.38
2022-11-02T15:28:19.509Z,28.80
2022-11-02T15:31:20.628Z,28.10
2022-11-02T15:34:17.582Z,27.40
2022-11-02T15:37:04.313Z,27.52
2022-11-02T15:39:54.489Z,27.15
2022-11-02T15:43:07.216Z,27.35
2022-11-02T15:46:13.830Z,27.63
2022-11-02T15:49:45.367Z,26.67
2022-11-02T15:53:21.560Z,25.60
2022-11-02T15:56:19.449Z,26.65
2022-11-02T15:59:41.329Z,26.20
2022-11-02T16:02:36.864Z,26.20
2022-11-02T16:05:24.746Z,27.25
2022-11-02T16:08:25.181Z,27.70
2022-11-02T16:11:29.218Z,27.40
2022-11-02T16:17:04.192Z,24.58
2022-11-02T16:19:50.640Z,27.58
2022-11-02T16:22:37.565Z,26.73
2022-11-02T16:25:26.117Z,28.17
2022-11-02T16:28:11.806Z,27.73
2022-11-02T16:31:01.985Z,26.80
2022-11-02T16:33:53.158Z,27.65
2022-11-02T16:36:39.158Z,28.02
2022-11-02T16:39:31.850Z,28.30
2022-11-02T16:42:22.775Z,29.70
2022-11-02T16:45:31.702Z,27.42
2022-11-02T16:48:23.413Z,28.63
2022-11-02T16:51:14.771Z,29.52
2022-11-02T16:54:31.427Z,28.25
2022-11-02T16:57:44.571Z,29.60
2022-11-02T17:00:30.023Z,37.60
2022-11-02T17:03:23.854Z,30.98
2022-11-02T17:06:09.586Z,31.15
2022-11-02T17:08:55.740Z,31.58
2022-11-02T17:11:43.132Z,31.80
2022-11-02T17:14:29.216Z,30.10
2022-11-02T17:17:39.960Z,30.40
2022-11-02T17:20:26.306Z,30.80
2022-11-02T17:23:32.455Z,30.95
2022-11-02T17:26:27.439Z,30.92
2022-11-02T17:29:25.169Z,29.98
2022-11-02T17:32:16.398Z,31.35
2022-11-02T17:35:04.895Z,31.90
2022-11-02T17:37:50.442Z,31.42
2022-11-02T17:40:37.211Z,31.02
2022-11-02T17:43:23.857Z,32.00
2022-11-02T17:46:09.926Z,32.35
2022-11-02T17:48:55.401Z,32.05
2022-11-02T17:51:42.691Z,32.50
2022-11-02T17:54:28.968Z,32.90
2022-11-02T17:57:15.294Z,32.13
2022-11-02T18:00:01.592Z,33.35
2022-11-02T18:02:58.753Z,32.80
2022-11-02T18:05:48.621Z,34.65
2022-11-02T18:08:56.532Z,34.15
2022-11-02T18:11:42.239Z,34.63
2022-11-02T18:14:27.835Z,34.30
2022-11-02T18:17:13.603Z,35.55
2022-11-02T18:19:59.487Z,35.17
2022-11-02T18:22:46.515Z,33.17
2022-11-02T18:25:33.438Z,35.60
2022-11-02T18:28:18.934Z,36.20
2022-11-02T18:31:09.004Z,35.00
2022-11-02T18:33:56.558Z,34.50
2022-11-02T18:36:43.138Z,38.83
2022-11-02T18:39:28.936Z,37.63
2022-11-02T18:42:14.353Z,34.45
2022-11-02T18:45:00.361Z,37.38
2022-11-02T18:47:46.310Z,36.55
2022-11-02T18:50:32.143Z,36.65
2022-11-02T18:53:17.844Z,35.42
2022-11-02T18:56:05.061Z,36.55
2022-11-02T18:58:52.871Z,37.53
2022-11-02T19:01:38.568Z,37.05
2022-11-02T19:04:24.756Z,39.13
2022-11-02T19:07:28.843Z,37.63
2022-11-02T19:10:14.406Z,36.38
2022-11-02T19:12:59.872Z,36.67
2022-11-02T19:15:45.501Z,38.90
2022-11-02T19:18:31.188Z,38.00
2022-11-02T19:21:17.165Z,36.85
2022-11-02T19:24:04.800Z,40.58
2022-11-02T19:26:50.782Z,37.83
2022-11-02T19:29:36.729Z,36.53
2022-11-02T19:32:22.235Z,38.33
2022-11-02T19:35:08.177Z,37.20
2022-11-02T19:37:57.684Z,36.53
2022-11-02T19:40:43.552Z,37.60
2022-11-02T19:43:29.968Z,37.28
2022-11-02T19:46:17.752Z,36.72
2022-11-02T19:49:03.195Z,36.78
2022-11-02T19:51:49.230Z,37.20
2022-11-02T19:54:35.177Z,36.80
2022-11-02T19:57:20.837Z,36.45
2022-11-02T20:00:07.412Z,34.75
2022-11-02T20:02:54.828Z,34.92
2022-11-02T20:05:40.445Z,35.78
2022-11-02T20:08:26.705Z,35.50
2022-11-02T20:11:15.287Z,37.42
2022-11-02T20:14:02.929Z,35.10
2022-11-02T20:16:58.759Z,37.15
2022-11-02T20:19:50.055Z,35.10
2022-11-02T20:22:36.209Z,35.47
2022-11-02T20:25:24.387Z,38.15
2022-11-02T20:28:10.458Z,40.05
2022-11-02T20:30:56.142Z,39.47
2022-11-02T20:33:42.907Z,36.85
2022-11-02T20:36:29.006Z,37.38
2022-11-02T20:39:14.903Z,36.05
2022-11-02T20:42:00.402Z,36.33
2022-11-02T20:44:49.225Z,37.85
2022-11-02T20:47:35.023Z,36.50
2022-11-02T20:50:24.885Z,38.15
2022-11-02T20:53:11.465Z,36.58
2022-11-02T20:55:59.767Z,36.97
2022-11-02T20:58:55.458Z,37.55
2022-11-02T21:01:41.931Z,36.80
2022-11-02T21:04:27.776Z,35.78
2022-11-02T21:07:13.308Z,38.53
2022-11-02T21:09:59.081Z,40.88
2022-11-02T21:13:03.511Z,37.10
2022-11-02T21:15:49.194Z,37.03
2022-11-02T21:18:35.275Z,37.85
2022-11-02T21:21:21.952Z,39.35
2022-11-02T21:24:09.876Z,39.67
2022-11-02T21:26:55.492Z,39.75
2022-11-02T21:29:41.356Z,39.53
2022-11-02T21:32:26.979Z,38.15
2022-11-02T21:35:13.015Z,41.75
2022-11-02T21:38:01.296Z,37.97
2022-11-02T21:40:49.815Z,38.47
2022-11-02T21:43:37.489Z,39.92
2022-11-02T21:46:28.304Z,40.63
2022-11-02T21:49:14.021Z,39.63
2022-11-02T21:51:59.509Z,38.95
2022-11-02T21:54:45.077Z,39.60
2022-11-02T21:57:30.820Z,40.53
2022-11-02T22:00:16.703Z,40.92
2022-11-02T22:03:02.739Z,39.72
2022-11-02T22:05:59.359Z,40.78
2022-11-02T22:08:45.207Z,40.10
2022-11-02T22:11:31.288Z,38.80
2022-11-02T22:14:16.857Z,38.80
2022-11-02T22:17:11.218Z,39.70
2022-11-02T22:20:04.149Z,42.08
2022-11-02T22:22:50.265Z,39.75
2022-11-02T22:25:35.731Z,39.00
2022-11-02T22:31:16.081Z,39.83
2022-11-02T22:34:03.428Z,40.92
2022-11-02T22:36:49.313Z,40.58
2022-11-02T22:39:34.787Z,41.42
2022-11-02T22:42:20.367Z,41.42
2022-11-02T22:45:06.491Z,42.50
2022-11-02T22:47:52.228Z,41.63
2022-11-02T22:50:37.960Z,43.63
2022-11-02T22:53:30.562Z,44.00
2022-11-02T22:56:18.143Z,39.45
2022-11-02T22:59:05.123Z,43.05
2022-11-02T23:01:51.503Z,43.22
2022-11-02T23:04:37.056Z,42.65
2022-11-02T23:07:22.897Z,41.88
2022-11-02T23:10:29.407Z,44.17
2022-11-02T23:13:15.283Z,41.13
2022-11-02T23:16:23.572Z,41.80
2022-11-02T23:19:27.202Z,40.58
2022-11-02T23:22:31.959Z,42.22
2022-11-02T23:25:19.077Z,42.78
2022-11-02T23:31:32.323Z,42.75
2022-11-02T23:34:17.713Z,40.78
2022-11-02T23:37:06.031Z,43.22
2022-11-02T23:39:51.761Z,43.15
2022-11-02T23:42:37.496Z,44.45
2022-11-02T23:45:23.129Z,43.05
2022-11-02T23:48:09.603Z,42.63
2022-11-02T23:51:16.124Z,45.63
2022-11-02T23:54:20.328Z,46.15
2022-11-02T23:57:06.746Z,42.85
2022-11-02T23:59:52.611Z,45.60
